Aktualne dane pomiarowe

Uwaga, wersja testowa! Automatyczne pobieranie danych za pomocą narzędzi lub skryptów to umożliwiających jest zabronione.

Dane meteo z obszaru Polski uzyskane na podstawie depesz SYNOP pobieranych co godzinę z NWS. Najedź myszką na symbol przedstawiony w tabeli, aby uzyskać informacje co do jego znaczenia. Prosimy pamiętać, że to testowa wersja strony, która jeszcze nie jest ukończona. Stworzono również jest krótki FAQ dotyczący korzystania z tej podstrony Anomalie temperatury w chwili obecnej odniesione są do okresu referencyjnego 1951-2016. Okres ten będzie później zmieniony na 1981-2010. Kliknij ikonę aby pobrać plik CSV. Kliknij ikonę aby wygenerować mapę synoptyczną dla danego terminu.

Wybierz Datę:    

        

Sandomierz (12585)

Dane terminowe dla wybranej stacji. Kliknij datę, aby otrzymać dane z tego terminu dla wszystkich stacji.

TemperaturaZachmurzenieWiatrCiśnienieOpadyPogoda
 Data t td wb tx tn tg rh  Nt Nl Cl Cm Ch ws wd g1 g2 wx mslp ppp ch 24h 12h t ww ww w1 w2  
2019-07-04 23:00:00 12.7 6.5 9.1--- 6645.0--2wx---1017.6 991.4 -0.9---------
2019-07-04 22:00:00 12.9 6.9 9.3--- 6715.0--2wx--21017.9 991.7 -0.5---------
2019-07-04 21:00:00 15.5 5.1 9.8--- 5050.0--2wx--21017.9 991.9 -0.3---------
2019-07-04 20:00:00 16.3 5.8 10.5--- 5050.0--2wx--21018.2 992.3 -0.1---------
2019-07-04 19:00:00 17.1 6.0 11.0--- 4820.0--2wx--21018.1 992.2 -0.5---------
2019-07-04 18:00:00 19.8 6.2 12.3 22.5 16.1- 4140.0--1wx-1011017.8 992.2 -0.8- 0.012------
2019-07-04 17:00:00 21.2 4.7 12.4--- 3435.0--3wx--31017.9 992.4 -1.1---------
2019-07-04 16:00:00 21.8 4.8 12.7--- 3340.0--3wx---1018.2 992.7 -1.3---------
2019-07-04 15:00:00 22.0 4.5 12.7--- 3235.0--4wx-1041018.4 993.0 -1.5---------
2019-07-04 14:00:00 22.0 5.8 13.1--- 3535.0--3wx-1031019.0 993.5 -1.2---------
2019-07-04 13:00:00 21.9 4.9 12.8--- 3335.0--5wx-1051019.5 994.0 -1.0---------
2019-07-04 12:00:00 20.9 4.9 12.3--- 3545.0--4wx-1041020.1 994.5 -0.5- 0.06------
2019-07-04 11:00:00 20.6 4.2 11.9--- 3430.0--5wx--51020.3 994.7 -0.6---------
2019-07-04 10:00:00 18.9 3.9 11.0--- 3745.0--3wx-931020.8 995.0 -0.6---------
2019-07-04 09:00:00 19.4 6.8 12.4--- 4445.0--3wx--31020.7 995.0 -0.5---------
2019-07-04 08:00:00 17.3 6.5 11.3--- 4940.0--1wx--11021.2 995.3 -0.1---------
2019-07-04 07:00:00 17.2 6.1 11.1--- 4830.0--2wx---1021.5 995.6 0.2---------
2019-07-04 06:00:00 16.5 7.2 11.2 18.4 10.8 9 5440.0--1wx--11021.5 995.5 0.4- 0.012----- 13.9
2019-07-04 05:00:00 13.6 7.6 10.0--- 6735.0--1wx--11021.7 995.4 0.5---------
2019-07-04 04:00:00 11.7 7.2 8.9--- 7440.0--1wx--11021.8 995.4 0.7---------
2019-07-04 03:00:00 11.1 6.8 8.5--- 7535.0--2wx--21021.6 995.1 0.4---------
2019-07-04 02:00:00 11.5 6.6 8.5--- 7250.0--2wx--21021.3 994.9 0.3---------
2019-07-04 01:00:00 12.0 5.8 8.4--- 6650.0--3wx--31021.1 994.7 0.2---------
2019-07-04 00:00:00 12.6 5.0 8.3--- 6050.0--3wx--31021.0 994.7 0.3- 0.06------
2019-07-03 23:00:00 12.0 4.7 7.9--- 6150.0--2wx--21021.0 994.6 0.5---------
2019-07-03 22:00:00 11.8 4.5 7.7--- 6150.0--2wx--21020.9 994.5 0.9---------
2019-07-03 21:00:00 13.2 4.9 8.6--- 5750.0--2wx--21020.7 994.4 1.3---------
2019-07-03 20:00:00 13.3 5.0 8.7--- 5740.0--2wx--21020.4 994.1 1.1---------
2019-07-03 19:00:00 15.6 4.9 9.8--- 4922.0--2wx--21019.6 993.6 0.8---------
2019-07-03 18:00:00 18.4 4.2 10.9 21.9 16.2- 3940.0--3wx-1031018.9 993.1 0.3- 0.012------
2019-07-03 17:00:00 20.1 3.3 11.4--- 3345.0--4wx--41018.6 993.0 0.0---------
2019-07-03 16:00:00 20.8 4.4 12.1--- 3435.0--4wx--41018.3 992.8 -0.2---------
2019-07-03 15:00:00 20.9 4.4 12.1--- 3435.0--5wx-1051018.3 992.8 0.0---------
2019-07-03 14:00:00 21.2 4.7 12.4--- 3430.0--5wx-1051018.5 993.0 0.0---------
2019-07-03 13:00:00 20.8 5.2 12.4--- 3630.0--5wx101051018.5 993.0 -0.2---------
2019-07-03 12:00:00 20.7 5.9 12.6--- 3829.0--6wx11--1018.4 992.8 -0.5---------
2019-07-03 11:00:00 19.7 6.1 12.2--- 4140.0--4wx--41018.6 993.0 0.0---------
2019-07-03 10:00:00 19.9 6.2 12.4--- 4135.0--5wx-951018.8 993.2 0.3---------
2019-07-03 09:00:00 18.8 6.9 12.1--- 4635.0--4wx---1019.0 993.3 0.2---------
2019-07-03 08:00:00 18.5 8.5 12.7--- 5230.0--3wx--31018.8 993.0 0.1---------
2019-07-03 07:00:00 17.4 8.5 12.2--- 5645.0--3wx--31018.7 992.9 0.5---------
2019-07-03 06:00:00 16.2 8.9 11.8 21.9 12.6 12 6240.0--3wx--31019.1 993.1 0.9- 0.012----- 11.4
2019-07-03 05:00:00 15.3 9.0 11.5--- 6640.0--3wx--31018.9 992.9 1.0---------
2019-07-03 04:00:00 13.5 9.0 10.7--- 7440.0--3wx--31018.6 992.4 0.8---------
2019-07-03 03:00:00 13.0 8.5 10.2--- 7445.0--3wx--31018.4 992.2 0.8---------
2019-07-03 02:00:00 13.2 8.9 10.5--- 7545.0--3wx--31018.1 991.9 0.7---------
2019-07-03 01:00:00 12.8 8.7 10.2--- 7650.0--2wx--21017.8 991.6 0.7---------
2019-07-03 00:00:00 13.7 8.7 10.6--- 7250.0--3wx--31017.5 991.4 0.6- 0.06------
1.2 ms

 

Print Friendly, PDF & Email